createdAt,value
2024-01-21T00:03:44.223Z,97627.66
2024-01-21T00:08:47.245Z,97630.00
2024-01-21T00:13:51.557Z,97638.69
2024-01-21T00:18:54.536Z,97634.94
2024-01-21T00:23:57.689Z,97622.84
2024-01-21T00:29:02.692Z,97616.72
2024-01-21T00:34:05.905Z,97631.63
2024-01-21T00:39:09.031Z,97644.56
2024-01-21T00:44:13.342Z,97635.50
2024-01-21T00:49:16.382Z,97634.22
2024-01-21T00:54:19.910Z,97640.22
2024-01-21T00:59:24.153Z,97643.06
2024-01-21T01:04:27.137Z,97640.09
2024-01-21T01:09:30.122Z,97656.78
2024-01-21T01:14:34.416Z,97643.97
2024-01-21T01:19:37.479Z,97652.97
2024-01-21T01:24:40.593Z,97653.81
2024-01-21T01:29:44.828Z,97652.31
2024-01-21T01:34:48.009Z,97648.31
2024-01-21T01:39:51.179Z,97655.94
2024-01-21T01:44:55.402Z,97649.97
2024-01-21T01:49:58.667Z,97658.78
2024-01-21T01:55:01.575Z,97653.13
2024-01-21T02:00:07.981Z,97643.72
2024-01-21T02:05:11.390Z,97652.09
2024-01-21T02:10:14.429Z,97646.31
2024-01-21T02:15:18.845Z,97641.03
2024-01-21T02:20:21.837Z,97649.75
2024-01-21T02:25:26.083Z,97635.88
2024-01-21T02:30:28.985Z,97641.75
2024-01-21T02:35:31.973Z,97649.84
2024-01-21T02:40:36.844Z,97646.31
2024-01-21T02:45:39.817Z,97651.47
2024-01-21T02:50:43.016Z,97653.72
2024-01-21T02:55:47.294Z,97651.84
2024-01-21T03:00:50.497Z,97660.19
2024-01-21T03:05:53.468Z,97667.44
2024-01-21T03:10:57.687Z,97666.50
2024-01-21T03:16:00.595Z,97659.44
2024-01-21T03:21:03.562Z,97647.00
2024-01-21T03:26:07.876Z,97644.88
2024-01-21T03:31:11.590Z,97644.66
2024-01-21T03:36:14.683Z,97641.28
2024-01-21T03:41:21.029Z,97646.31
2024-01-21T03:46:24.024Z,97639.47
2024-01-21T03:51:26.993Z,97638.31
2024-01-21T03:56:31.589Z,97622.13
2024-01-21T04:01:34.522Z,97624.34
2024-01-21T04:06:41.198Z,97625.97
2024-01-21T04:11:45.480Z,97624.94
2024-01-21T04:16:48.441Z,97628.69
2024-01-21T04:21:51.457Z,97641.59
2024-01-21T04:26:55.769Z,97642.53
2024-01-21T04:31:58.899Z,97631.97
2024-01-21T04:37:02.391Z,97622.84
2024-01-21T04:42:07.015Z,97622.13
2024-01-21T04:47:11.587Z,97621.91
2024-01-21T04:52:14.570Z,97620.13
2024-01-21T04:57:19.029Z,97633.38
2024-01-21T05:02:21.999Z,97626.91
2024-01-21T05:07:26.436Z,97630.31
2024-01-21T05:12:32.511Z,97632.78
2024-01-21T05:17:35.488Z,97650.19
2024-01-21T05:22:38.485Z,97653.69
2024-01-21T05:27:42.777Z,97648.66
2024-01-21T05:32:47.488Z,97654.75
2024-01-21T05:37:50.612Z,97668.72
2024-01-21T05:42:54.904Z,97679.97
2024-01-21T05:47:57.875Z,97684.31
2024-01-21T05:53:00.833Z,97690.31
2024-01-21T05:58:05.511Z,97685.88
2024-01-21T06:03:08.578Z,97691.72
2024-01-21T06:08:12.197Z,97689.28
2024-01-21T06:13:16.435Z,97684.31
2024-01-21T06:18:19.435Z,97692.91
2024-01-21T06:23:22.380Z,97693.69
2024-01-21T06:28:26.652Z,97706.75
2024-01-21T06:33:29.790Z,97715.44
2024-01-21T06:38:32.747Z,97712.03
2024-01-21T06:43:36.947Z,97725.53
2024-01-21T06:48:40.077Z,97734.56
2024-01-21T06:53:44.294Z,97751.22
2024-01-21T06:58:48.792Z,97755.00
2024-01-21T07:03:51.862Z,97763.31
2024-01-21T07:08:54.909Z,97765.78
2024-01-21T07:13:59.098Z,97772.97
2024-01-21T07:19:02.040Z,97782.56
2024-01-21T07:24:05.441Z,97778.22
2024-01-21T07:29:09.702Z,97777.16
2024-01-21T07:34:13.031Z,97789.63
2024-01-21T07:39:16.121Z,97794.44
2024-01-21T07:44:20.407Z,97794.44
2024-01-21T07:49:23.389Z,97791.25
2024-01-21T07:54:26.449Z,97803.94
2024-01-21T07:59:30.905Z,97809.13
2024-01-21T08:04:33.855Z,97814.06
2024-01-21T08:09:37.044Z,97822.00
2024-01-21T08:14:41.627Z,97832.91
2024-01-21T08:19:44.642Z,97843.31
2024-01-21T08:24:53.901Z,97849.13
2024-01-21T08:29:58.256Z,97834.31
2024-01-21T08:35:01.256Z,97857.72
2024-01-21T08:40:05.413Z,97839.19
2024-01-21T08:45:10.933Z,97845.25
2024-01-21T08:50:15.176Z,97853.81
2024-01-21T08:55:18.461Z,97840.31
2024-01-21T09:00:23.139Z,97861.03
2024-01-21T09:05:28.454Z,97854.25
2024-01-21T09:10:31.462Z,97853.59
2024-01-21T09:15:35.777Z,97849.00
2024-01-21T09:20:38.673Z,97862.28
2024-01-21T09:25:41.647Z,97880.13
2024-01-21T09:30:47.380Z,97863.94
2024-01-21T09:35:51.585Z,97871.88
2024-01-21T09:40:59.936Z,97879.56
2024-01-21T09:46:05.465Z,97876.47
2024-01-21T09:51:09.478Z,97860.28
2024-01-21T09:56:12.657Z,97860.66
2024-01-21T10:01:17.785Z,97853.06
2024-01-21T10:06:20.898Z,97841.22
2024-01-21T10:11:23.792Z,97858.09
2024-01-21T10:16:28.042Z,97849.47
2024-01-21T10:21:31.704Z,97834.09
2024-01-21T10:26:34.684Z,97840.09
2024-01-21T10:31:38.936Z,97839.19
2024-01-21T10:36:45.947Z,97823.22
2024-01-21T10:41:48.958Z,97805.50
2024-01-21T10:46:54.984Z,97797.63
2024-01-21T10:51:57.972Z,97782.50
2024-01-21T10:57:01.338Z,97781.66
2024-01-21T11:02:07.433Z,97775.19
2024-01-21T11:07:13.341Z,97775.91
2024-01-21T11:12:16.317Z,97766.72
2024-01-21T11:17:20.800Z,97764.19
2024-01-21T11:22:26.785Z,97755.78
2024-01-21T11:27:30.653Z,97759.56
2024-01-21T11:32:35.224Z,97743.22
2024-01-21T11:37:38.468Z,97733.47
2024-01-21T11:42:41.463Z,97743.69
2024-01-21T11:47:46.899Z,97746.59
2024-01-21T11:52:49.785Z,97752.22
2024-01-21T11:57:52.758Z,97743.91
2024-01-21T12:02:57.011Z,97730.41
2024-01-21T12:08:01.607Z,97728.41
2024-01-21T12:13:07.498Z,97726.28
2024-01-21T12:18:17.948Z,97724.88
2024-01-21T12:23:22.968Z,97708.31
2024-01-21T12:28:25.975Z,97715.13
2024-01-21T12:33:30.768Z,97717.59
2024-01-21T12:38:33.820Z,97711.72
2024-01-21T12:43:36.773Z,97717.28
2024-01-21T12:48:41.105Z,97734.31
2024-01-21T12:53:44.044Z,97736.38
2024-01-21T12:58:47.370Z,97724.31
2024-01-21T13:03:54.130Z,97731.97
2024-01-21T13:08:57.374Z,97728.06
2024-01-21T13:14:00.479Z,97731.81
2024-01-21T13:19:04.893Z,97735.13
2024-01-21T13:24:08.709Z,97729.13
2024-01-21T13:29:29.029Z,97716.94
2024-01-21T13:34:33.488Z,97714.50
2024-01-21T13:39:36.527Z,97728.91
2024-01-21T13:44:39.405Z,97719.75
2024-01-21T13:49:43.715Z,97719.13
2024-01-21T13:54:46.667Z,97732.88
2024-01-21T13:59:49.600Z,97733.09
2024-01-21T14:04:54.555Z,97725.22
2024-01-21T14:09:59.955Z,97722.31
2024-01-21T14:15:02.869Z,97725.72
2024-01-21T14:20:10.114Z,97737.81
2024-01-21T14:25:18.049Z,97729.13
2024-01-21T14:30:24.231Z,97717.97
2024-01-21T14:35:28.560Z,97720.31
2024-01-21T14:40:32.783Z,97725.00
2024-01-21T14:45:35.779Z,97706.81
2024-01-21T14:50:40.010Z,97699.16
2024-01-21T14:55:43.007Z,97708.31
2024-01-21T15:00:47.430Z,97700.56
2024-01-21T15:05:51.779Z,97715.13
2024-01-21T15:10:54.974Z,97712.88
2024-01-21T15:15:58.272Z,97723.44
2024-01-21T15:21:02.504Z,97719.31
2024-01-21T15:26:05.789Z,97730.72
2024-01-21T15:31:08.872Z,97737.41
2024-01-21T15:36:13.652Z,97740.34
2024-01-21T15:41:16.631Z,97734.72
2024-01-21T15:46:20.009Z,97736.56
2024-01-21T15:51:24.337Z,97733.66
2024-01-21T15:56:27.242Z,97743.47
2024-01-21T16:01:30.811Z,97726.69
2024-01-21T16:06:35.487Z,97727.75
2024-01-21T16:11:38.574Z,97732.81
2024-01-21T16:16:44.607Z,97730.59
2024-01-21T16:21:49.432Z,97725.63
2024-01-21T16:26:52.479Z,97739.72
2024-01-21T16:31:55.860Z,97743.94
2024-01-21T16:37:01.050Z,97738.94
2024-01-21T16:42:04.339Z,97749.75
2024-01-21T16:47:07.503Z,97737.28
2024-01-21T16:52:16.790Z,97726.84
2024-01-21T16:57:19.715Z,97731.19
2024-01-21T17:02:23.442Z,97736.91
2024-01-21T17:07:27.803Z,97744.34
2024-01-21T17:12:37.452Z,97741.06
2024-01-21T17:17:43.758Z,97742.13
2024-01-21T17:22:48.100Z,97741.47
2024-01-21T17:27:50.968Z,97743.63
2024-01-21T17:32:53.972Z,97750.81
2024-01-21T17:38:00.397Z,97749.00
2024-01-21T17:43:03.665Z,97738.28
2024-01-21T17:48:08.215Z,97743.69
2024-01-21T17:53:12.681Z,97747.22
2024-01-21T17:58:15.561Z,97750.16
2024-01-21T18:03:18.500Z,97746.69
2024-01-21T18:08:22.803Z,97756.56
2024-01-21T18:13:25.777Z,97762.59
2024-01-21T18:18:29.144Z,97763.34
2024-01-21T18:23:33.517Z,97765.06
2024-01-21T18:28:36.642Z,97769.03
2024-01-21T18:33:39.832Z,97765.69
2024-01-21T18:38:44.566Z,97765.13
2024-01-21T18:43:48.606Z,97766.31
2024-01-21T18:48:51.661Z,97769.84
2024-01-21T18:53:56.256Z,97762.59
2024-01-21T18:58:59.198Z,97758.69
2024-01-21T19:04:02.185Z,97750.44
2024-01-21T19:09:06.670Z,97749.22
2024-01-21T19:14:09.724Z,97762.72
2024-01-21T19:19:13.906Z,97745.63
2024-01-21T19:24:18.430Z,97723.22
2024-01-21T19:29:21.753Z,97736.03
2024-01-21T19:34:24.652Z,97750.59
2024-01-21T19:39:29.014Z,97736.25
2024-01-21T19:44:31.974Z,97740.69
2024-01-21T19:49:35.057Z,97743.41
2024-01-21T19:54:39.301Z,97729.22
2024-01-21T19:59:42.703Z,97725.81
2024-01-21T20:04:45.661Z,97737.22
2024-01-21T20:09:50.073Z,97729.81
2024-01-21T20:14:53.166Z,97722.38
2024-01-21T20:19:56.127Z,97718.03
2024-01-21T20:25:01.208Z,97719.91
2024-01-21T20:30:06.072Z,97725.78
2024-01-21T20:35:09.644Z,97717.69
2024-01-21T20:40:15.509Z,97726.72
2024-01-21T20:45:18.526Z,97726.97
2024-01-21T20:50:21.477Z,97736.50
2024-01-21T20:55:30.100Z,97727.19
2024-01-21T21:00:33.726Z,97727.19
2024-01-21T21:05:37.794Z,97715.19
2024-01-21T21:10:42.836Z,97720.16
2024-01-21T21:15:45.780Z,97715.34
2024-01-21T21:20:48.943Z,97703.50
2024-01-21T21:25:53.232Z,97703.50
2024-01-21T21:30:56.161Z,97709.00
2024-01-21T21:35:59.386Z,97703.00
2024-01-21T21:41:04.355Z,97707.25
2024-01-21T21:46:08.466Z,97690.50
2024-01-21T21:51:11.446Z,97692.88
2024-01-21T21:56:16.278Z,97693.41
2024-01-21T22:01:19.827Z,97693.91
2024-01-21T22:06:23.641Z,97683.09
2024-01-21T22:11:28.557Z,97691.06
2024-01-21T22:16:32.096Z,97672.03
2024-01-21T22:21:35.340Z,97678.38
2024-01-21T22:26:43.559Z,97677.09
2024-01-21T22:31:48.141Z,97672.94
2024-01-21T22:36:51.083Z,97668.53
2024-01-21T22:41:55.347Z,97671.59
2024-01-21T22:46:58.227Z,97669.09
2024-01-21T22:52:01.554Z,97663.56
2024-01-21T22:57:06.107Z,97663.63
2024-01-21T23:02:09.173Z,97664.44
2024-01-21T23:07:12.109Z,97660.91
2024-01-21T23:12:16.502Z,97650.66
2024-01-21T23:17:19.465Z,97631.31
2024-01-21T23:22:22.375Z,97637.56
2024-01-21T23:27:26.600Z,97646.19
2024-01-21T23:32:29.559Z,97631.88
2024-01-21T23:37:32.466Z,97612.59
2024-01-21T23:42:36.719Z,97612.25
2024-01-21T23:47:39.737Z,97623.78
2024-01-21T23:52:43.731Z,97609.81
2024-01-21T23:57:48.960Z,97601.13
